Time;durP1;ratioP1;P1;durP2;ratioP2;P2;SDS_P1;SDS_P2;PMS_P1;PMS_P2;Temp;Humidity;BMP_temperature;BMP_pressure;BME280_temperature;BME280_humidity;BME280_pressure;Samples;Min_cycle;Max_cycle;Signal;HPM_P1;HPM_P2
2023/11/03 00:00:12;;;;;;;32.53;16.55;;;;;;;;;;6339950;27;20035;-65
2023/11/03 00:03:15;;;;;;;36.25;20.25;;;;;;;;;;6346418;27;20039;-65
2023/11/03 00:06:17;;;;;;;35.33;18.23;;;;;;;;;;6343821;27;20059;-65
2023/11/03 00:09:23;;;;;;;36.33;17.92;;;;;;;;;;6340692;28;20875;-66
2023/11/03 00:12:25;;;;;;;36.13;17.92;;;;;;;;;;6338522;28;20047;-66
2023/11/03 00:15:28;;;;;;;33.10;18.30;;;;;;;;;;6343075;28;20144;-66
2023/11/03 00:18:31;;;;;;;33.67;16.92;;;;;;;;;;6337540;28;20154;-66
2023/11/03 00:21:34;;;;;;;36.53;18.05;;;;;;;;;;6341817;27;20043;-65
2023/11/03 00:24:37;;;;;;;35.28;16.98;;;;;;;;;;6345621;27;20123;-66
2023/11/03 00:27:40;;;;;;;35.83;16.85;;;;;;;;;;6342795;28;20039;-65
2023/11/03 00:30:42;;;;;;;31.83;17.13;;;;;;;;;;6345105;28;20558;-66
2023/11/03 00:33:47;;;;;;;40.38;17.20;;;;;;;;;;6343576;28;20047;-66
2023/11/03 00:36:49;;;;;;;34.58;19.33;;;;;;;;;;6337460;28;20526;-66
2023/11/03 00:39:51;;;;;;;34.97;18.90;;;;;;;;;;6336935;28;20529;-66
2023/11/03 00:42:58;;;;;;;35.83;19.02;;;;;;;;;;6341667;27;20040;-66
2023/11/03 00:46:02;;;;;;;37.30;17.48;;;;;;;;;;6342741;28;20044;-66
2023/11/03 00:49:07;;;;;;;36.75;19.40;;;;;;;;;;6339912;28;20046;-66
2023/11/03 00:52:09;;;;;;;35.05;20.58;;;;;;;;;;6341525;27;20122;-65
2023/11/03 00:55:11;;;;;;;35.40;17.85;;;;;;;;;;6345524;27;20058;-66
2023/11/03 00:58:14;;;;;;;32.42;17.85;;;;;;;;;;6350039;27;20043;-65
2023/11/03 01:01:16;;;;;;;36.20;19.20;;;;;;;;;;6338763;28;20047;-65
2023/11/03 01:04:18;;;;;;;31.98;16.67;;;;;;;;;;6340630;28;20044;-66
2023/11/03 01:07:20;;;;;;;37.45;16.40;;;;;;;;;;6339357;27;20058;-65
2023/11/03 01:10:22;;;;;;;32.05;17.80;;;;;;;;;;6346884;27;20054;-65
2023/11/03 01:13:24;;;;;;;36.95;18.60;;;;;;;;;;6337865;28;20085;-66
2023/11/03 01:16:27;;;;;;;40.83;18.17;;;;;;;;;;6348082;27;20048;-65
2023/11/03 01:19:30;;;;;;;32.83;18.80;;;;;;;;;;6339588;27;20056;-66
2023/11/03 01:22:33;;;;;;;34.88;18.85;;;;;;;;;;6345064;27;20048;-66
2023/11/03 01:25:35;;;;;;;35.28;19.27;;;;;;;;;;6354495;27;20050;-66
2023/11/03 01:28:38;;;;;;;30.63;16.67;;;;;;;;;;6340539;27;20067;-65
2023/11/03 01:31:40;;;;;;;32.20;18.35;;;;;;;;;;6340583;27;20126;-66
2023/11/03 01:34:43;;;;;;;38.78;17.90;;;;;;;;;;6347291;27;20048;-65
2023/11/03 01:37:45;;;;;;;34.03;21.80;;;;;;;;;;6344725;27;20421;-65
2023/11/03 01:40:48;;;;;;;40.15;19.20;;;;;;;;;;6345707;27;20543;-66
2023/11/03 01:44:06;;;;;;;35.67;22.35;;;;;;;;;;6343556;27;20390;-65
2023/11/03 01:47:08;;;;;;;35.22;19.10;;;;;;;;;;6347258;27;20046;-66
2023/11/03 01:50:12;;;;;;;33.28;17.35;;;;;;;;;;6343020;27;20179;-66
2023/11/03 01:53:15;;;;;;;33.85;18.63;;;;;;;;;;6341969;27;20075;-65
2023/11/03 01:56:19;;;;;;;34.90;19.45;;;;;;;;;;6341976;27;20557;-65
2023/11/03 01:59:21;;;;;;;34.45;17.20;;;;;;;;;;6338043;28;20072;-65
2023/11/03 02:02:23;;;;;;;31.75;17.83;;;;;;;;;;6323322;28;20506;-65
2023/11/03 02:05:25;;;;;;;30.52;18.02;;;;;;;;;;6337600;28;20055;-66
2023/11/03 02:08:28;;;;;;;29.98;17.77;;;;;;;;;;6335982;28;20051;-65
2023/11/03 02:11:31;;;;;;;35.20;19.77;;;;;;;;;;6344391;28;20071;-65
2023/11/03 02:14:34;;;;;;;33.78;17.33;;;;;;;;;;6349110;27;20036;-65
2023/11/03 02:17:37;;;;;;;37.28;19.25;;;;;;;;;;6349850;27;20043;-66
2023/11/03 02:20:39;;;;;;;39.63;19.73;;;;;;;;;;6339894;27;20585;-66
2023/11/03 02:23:41;;;;;;;41.20;20.23;;;;;;;;;;6352504;27;20031;-65
2023/11/03 02:26:45;;;;;;;33.85;19.98;;;;;;;;;;6351698;27;20046;-67
2023/11/03 02:29:47;;;;;;;42.10;21.27;;;;;;;;;;6335973;27;20067;-65
2023/11/03 02:32:49;;;;;;;47.72;20.25;;;;;;;;;;6336261;28;20040;-65
2023/11/03 02:35:52;;;;;;;44.05;19.63;;;;;;;;;;6356106;27;20055;-65
2023/11/03 02:38:54;;;;;;;36.88;17.98;;;;;;;;;;6338617;27;20056;-64
2023/11/03 02:41:56;;;;;;;33.05;21.45;;;;;;;;;;6336990;28;20548;-66
2023/11/03 02:44:59;;;;;;;41.35;20.23;;;;;;;;;;6337422;28;20047;-65
2023/11/03 02:48:00;;;;;;;33.92;18.60;;;;;;;;;;6342731;27;20040;-65
2023/11/03 02:51:03;;;;;;;37.20;17.92;;;;;;;;;;6339371;27;20043;-66
2023/11/03 02:54:07;;;;;;;32.42;16.27;;;;;;;;;;6338936;27;20088;-66
2023/11/03 02:57:09;;;;;;;37.78;22.20;;;;;;;;;;6342772;27;20773;-66
2023/11/03 03:00:12;;;;;;;35.92;17.85;;;;;;;;;;6337388;28;20039;-66
2023/11/03 03:03:14;;;;;;;33.28;18.55;;;;;;;;;;6340440;27;20184;-66
2023/11/03 03:06:16;;;;;;;37.22;18.02;;;;;;;;;;6337772;28;20047;-66
2023/11/03 03:09:18;;;;;;;33.45;18.17;;;;;;;;;;6354818;27;20055;-66
2023/11/03 03:12:21;;;;;;;37.47;18.38;;;;;;;;;;6337941;27;20043;-66
2023/11/03 03:15:24;;;;;;;33.70;17.15;;;;;;;;;;6339019;28;20538;-67
2023/11/03 03:18:27;;;;;;;31.73;17.38;;;;;;;;;;6345779;27;20048;-67
2023/11/03 03:21:29;;;;;;;29.33;15.68;;;;;;;;;;6340764;27;20059;-65
2023/11/03 03:24:31;;;;;;;29.90;20.85;;;;;;;;;;6338965;27;20406;-66
2023/11/03 03:27:33;;;;;;;30.58;15.40;;;;;;;;;;6342410;27;20076;-66
2023/11/03 03:30:36;;;;;;;29.73;18.45;;;;;;;;;;6341551;27;20446;-66
2023/11/03 03:33:38;;;;;;;29.25;15.85;;;;;;;;;;6341512;27;20118;-65
2023/11/03 03:36:40;;;;;;;31.35;19.88;;;;;;;;;;6337365;28;20437;-66
2023/11/03 03:39:44;;;;;;;25.50;15.30;;;;;;;;;;6338509;27;20074;-66
2023/11/03 03:42:46;;;;;;;29.08;16.05;;;;;;;;;;6339443;27;20051;-66
2023/11/03 03:45:48;;;;;;;25.50;15.80;;;;;;;;;;6349836;27;20658;-66
2023/11/03 03:48:50;;;;;;;26.50;15.18;;;;;;;;;;6340803;27;20082;-66
2023/11/03 03:51:53;;;;;;;27.83;15.27;;;;;;;;;;6334813;27;20054;-66
2023/11/03 03:54:56;;;;;;;28.83;15.35;;;;;;;;;;6343592;27;20058;-66
2023/11/03 03:57:58;;;;;;;28.55;14.30;;;;;;;;;;6340306;27;20062;-66
2023/11/03 04:01:00;;;;;;;26.17;14.77;;;;;;;;;;6336387;27;20545;-66
2023/11/03 04:04:03;;;;;;;28.27;16.45;;;;;;;;;;6342700;27;20080;-67
2023/11/03 04:07:05;;;;;;;23.35;13.80;;;;;;;;;;6328987;28;20187;-65
2023/11/03 04:10:07;;;;;;;25.15;14.75;;;;;;;;;;6336989;27;20040;-66
2023/11/03 04:13:09;;;;;;;26.65;20.13;;;;;;;;;;6332222;28;20605;-65
2023/11/03 04:16:12;;;;;;;26.23;14.10;;;;;;;;;;6330041;27;20086;-65
2023/11/03 04:19:14;;;;;;;29.95;15.48;;;;;;;;;;6341315;28;20050;-65
2023/11/03 04:22:16;;;;;;;24.48;13.80;;;;;;;;;;6338125;28;20055;-65
2023/11/03 04:25:18;;;;;;;24.05;13.68;;;;;;;;;;6341118;28;20043;-65
2023/11/03 04:28:20;;;;;;;26.70;15.40;;;;;;;;;;6346574;27;20110;-65
2023/11/03 04:31:22;;;;;;;27.38;14.82;;;;;;;;;;6340644;27;20107;-66
2023/11/03 04:34:24;;;;;;;25.48;14.25;;;;;;;;;;6340570;27;20051;-65
2023/11/03 04:37:27;;;;;;;26.45;14.00;;;;;;;;;;6343147;27;21300;-65
2023/11/03 04:40:29;;;;;;;23.85;13.55;;;;;;;;;;6340627;27;20061;-65
2023/11/03 04:43:35;;;;;;;26.38;13.30;;;;;;;;;;6352188;27;20039;-65
2023/11/03 04:46:38;;;;;;;23.30;12.32;;;;;;;;;;6349676;27;20142;-65
2023/11/03 04:49:41;;;;;;;24.58;12.90;;;;;;;;;;6340444;27;20047;-66
2023/11/03 04:52:43;;;;;;;23.98;13.55;;;;;;;;;;6331080;27;20040;-65
2023/11/03 04:55:45;;;;;;;23.75;11.98;;;;;;;;;;6337631;27;20658;-65
2023/11/03 04:58:48;;;;;;;23.73;14.25;;;;;;;;;;6341299;27;20089;-64
2023/11/03 05:01:50;;;;;;;21.85;13.15;;;;;;;;;;6333175;27;20685;-65
2023/11/03 05:04:54;;;;;;;27.95;13.90;;;;;;;;;;6341211;27;20059;-65
2023/11/03 05:07:56;;;;;;;30.95;14.15;;;;;;;;;;6337587;27;20157;-65
2023/11/03 05:10:58;;;;;;;29.98;13.68;;;;;;;;;;6347358;27;20567;-65
2023/11/03 05:14:00;;;;;;;28.20;14.95;;;;;;;;;;6343432;27;20047;-65
2023/11/03 05:17:03;;;;;;;26.75;13.80;;;;;;;;;;6346146;27;20046;-66
2023/11/03 05:20:08;;;;;;;34.47;20.15;;;;;;;;;;6326348;27;20316;-67
2023/11/03 05:23:10;;;;;;;26.25;14.00;;;;;;;;;;6335621;27;20091;-66
2023/11/03 05:26:13;;;;;;;26.42;13.60;;;;;;;;;;6332376;27;20545;-65
2023/11/03 05:29:22;;;;;;;29.33;17.23;;;;;;;;;;6328684;27;20556;-65
2023/11/03 05:32:26;;;;;;;25.60;13.52;;;;;;;;;;6329071;28;20097;-65
2023/11/03 05:35:28;;;;;;;26.67;13.77;;;;;;;;;;6335384;27;20051;-64
2023/11/03 05:38:30;;;;;;;23.00;13.90;;;;;;;;;;6335617;27;20807;-65
2023/11/03 05:41:33;;;;;;;23.58;13.25;;;;;;;;;;6337184;27;20043;-65
2023/11/03 05:44:35;;;;;;;26.08;14.55;;;;;;;;;;6352518;27;20027;-65
2023/11/03 05:47:38;;;;;;;20.40;11.82;;;;;;;;;;6338566;27;20534;-65
2023/11/03 05:50:40;;;;;;;27.65;17.73;;;;;;;;;;6350388;27;20724;-65
2023/11/03 05:53:42;;;;;;;21.98;12.38;;;;;;;;;;6344546;27;20043;-65
2023/11/03 05:56:44;;;;;;;20.73;12.48;;;;;;;;;;6342290;27;20043;-66
2023/11/03 05:59:46;;;;;;;24.42;13.70;;;;;;;;;;6342011;27;20581;-66
2023/11/03 06:02:50;;;;;;;22.70;12.80;;;;;;;;;;6348060;27;20044;-66
2023/11/03 06:05:52;;;;;;;20.20;11.88;;;;;;;;;;6343943;27;20051;-66
2023/11/03 06:08:55;;;;;;;20.98;11.75;;;;;;;;;;6342279;27;20063;-67
2023/11/03 06:11:57;;;;;;;19.70;12.23;;;;;;;;;;6350915;27;20047;-66
2023/11/03 06:14:59;;;;;;;18.33;10.95;;;;;;;;;;6340772;27;20089;-65
2023/11/03 06:18:01;;;;;;;19.05;10.65;;;;;;;;;;6339309;27;20082;-65
2023/11/03 06:21:05;;;;;;;17.98;10.75;;;;;;;;;;6346441;27;20051;-65
2023/11/03 06:24:10;;;;;;;18.58;10.60;;;;;;;;;;6341814;27;20636;-65
2023/11/03 06:27:12;;;;;;;18.42;12.18;;;;;;;;;;6346916;27;20051;-65
2023/11/03 06:30:14;;;;;;;21.05;11.80;;;;;;;;;;6347254;27;20043;-65
2023/11/03 06:33:16;;;;;;;23.98;13.32;;;;;;;;;;6341509;27;20062;-65
2023/11/03 06:36:18;;;;;;;20.48;12.63;;;;;;;;;;6351599;27;20050;-66
2023/11/03 06:39:20;;;;;;;18.30;9.98;;;;;;;;;;6348798;27;20043;-66
2023/11/03 06:42:23;;;;;;;20.25;11.90;;;;;;;;;;6341994;27;20051;-66
2023/11/03 06:45:25;;;;;;;23.05;13.52;;;;;;;;;;6346420;27;20062;-65
2023/11/03 06:48:27;;;;;;;25.70;16.95;;;;;;;;;;6339266;27;20069;-65
2023/11/03 06:51:30;;;;;;;22.80;13.35;;;;;;;;;;6342436;27;20047;-65
2023/11/03 06:54:32;;;;;;;22.10;14.00;;;;;;;;;;6339382;27;20192;-65
2023/11/03 06:57:35;;;;;;;19.83;12.52;;;;;;;;;;6342842;27;20043;-65
2023/11/03 07:00:41;;;;;;;26.40;15.18;;;;;;;;;;6339538;27;20047;-65
2023/11/03 07:03:43;;;;;;;19.45;11.60;;;;;;;;;;6339509;27;20126;-65
2023/11/03 07:06:46;;;;;;;17.67;11.57;;;;;;;;;;6339841;27;20043;-65
2023/11/03 07:09:48;;;;;;;17.13;9.90;;;;;;;;;;6341721;27;20077;-65
2023/11/03 07:12:49;;;;;;;20.63;12.10;;;;;;;;;;6348335;27;20039;-65
2023/11/03 07:15:51;;;;;;;17.13;10.77;;;;;;;;;;6348611;27;20078;-64
2023/11/03 07:18:54;;;;;;;23.75;12.48;;;;;;;;;;6348167;27;20079;-65
2023/11/03 07:21:57;;;;;;;20.95;15.95;;;;;;;;;;6349479;27;20512;-65
2023/11/03 07:24:59;;;;;;;21.05;10.98;;;;;;;;;;6348832;27;20038;-65
2023/11/03 07:28:01;;;;;;;24.52;11.02;;;;;;;;;;6346092;27;20577;-65
2023/11/03 07:31:03;;;;;;;20.80;11.20;;;;;;;;;;6348774;27;20044;-65
2023/11/03 07:34:06;;;;;;;17.58;11.63;;;;;;;;;;6338733;27;20109;-65
2023/11/03 07:37:08;;;;;;;15.88;9.23;;;;;;;;;;6338917;27;20078;-65
2023/11/03 07:40:12;;;;;;;17.88;10.05;;;;;;;;;;6339594;27;20043;-64
2023/11/03 07:43:15;;;;;;;17.38;10.05;;;;;;;;;;6340080;27;20741;-65
2023/11/03 07:46:19;;;;;;;17.42;11.05;;;;;;;;;;6342861;27;20581;-65
2023/11/03 07:49:22;;;;;;;17.13;9.52;;;;;;;;;;6341403;27;20484;-65
2023/11/03 07:52:24;;;;;;;17.63;10.35;;;;;;;;;;6341131;27;20047;-65
2023/11/03 07:55:26;;;;;;;16.27;9.70;;;;;;;;;;6335866;28;20213;-65
2023/11/03 07:58:29;;;;;;;17.70;10.60;;;;;;;;;;6338356;27;20059;-65
2023/11/03 08:01:31;;;;;;;20.77;14.48;;;;;;;;;;6342418;27;20544;-65
2023/11/03 08:04:33;;;;;;;17.95;11.32;;;;;;;;;;6345416;27;20040;-64
2023/11/03 08:07:36;;;;;;;17.88;10.27;;;;;;;;;;6342935;28;20484;-65
2023/11/03 08:10:38;;;;;;;19.20;11.27;;;;;;;;;;6340725;27;20051;-65
2023/11/03 08:13:40;;;;;;;18.25;10.77;;;;;;;;;;6339710;27;20032;-65
2023/11/03 08:16:44;;;;;;;19.35;10.57;;;;;;;;;;6338173;28;21341;-65
2023/11/03 08:19:46;;;;;;;19.92;11.65;;;;;;;;;;6336555;28;20180;-65
2023/11/03 08:22:49;;;;;;;23.55;12.23;;;;;;;;;;6335013;28;20153;-65
2023/11/03 08:25:51;;;;;;;18.58;12.63;;;;;;;;;;6341092;28;20041;-65
2023/11/03 08:28:54;;;;;;;22.58;12.48;;;;;;;;;;6329586;28;20043;-66
2023/11/03 08:31:56;;;;;;;17.50;10.30;;;;;;;;;;6338175;28;20128;-65
2023/11/03 08:34:58;;;;;;;20.88;11.98;;;;;;;;;;6335252;28;20039;-65
2023/11/03 08:38:03;;;;;;;16.60;10.00;;;;;;;;;;6337747;28;20055;-65
2023/11/03 08:41:05;;;;;;;60.45;27.45;;;;;;;;;;6338211;28;20047;-65
2023/11/03 08:44:08;;;;;;;33.55;16.05;;;;;;;;;;6336610;28;20032;-65
2023/11/03 08:47:10;;;;;;;22.42;13.05;;;;;;;;;;6338069;28;20047;-65
2023/11/03 08:50:14;;;;;;;17.00;10.98;;;;;;;;;;6335555;28;20561;-65
2023/11/03 08:53:16;;;;;;;19.77;11.88;;;;;;;;;;6337972;28;20044;-65
2023/11/03 08:56:22;;;;;;;20.52;11.98;;;;;;;;;;6344656;28;20076;-65
2023/11/03 08:59:25;;;;;;;20.35;14.13;;;;;;;;;;6343185;28;20512;-65
2023/11/03 09:02:27;;;;;;;18.92;10.52;;;;;;;;;;6336723;28;20055;-65
2023/11/03 09:05:29;;;;;;;22.20;16.08;;;;;;;;;;6336089;28;20438;-65
2023/11/03 09:08:31;;;;;;;20.83;13.27;;;;;;;;;;6339624;28;20052;-65
2023/11/03 09:11:33;;;;;;;21.38;12.30;;;;;;;;;;6331635;27;20136;-65
2023/11/03 09:14:36;;;;;;;19.35;11.27;;;;;;;;;;6339882;28;20043;-65
2023/11/03 09:17:38;;;;;;;18.48;12.65;;;;;;;;;;6342408;27;20043;-65
2023/11/03 09:20:40;;;;;;;19.13;14.27;;;;;;;;;;6340437;27;20434;-65
2023/11/03 09:23:43;;;;;;;19.10;11.07;;;;;;;;;;6348352;27;20153;-65
2023/11/03 09:26:45;;;;;;;17.17;12.10;;;;;;;;;;6347791;27;20048;-65
2023/11/03 09:29:58;;;;;;;17.67;9.35;;;;;;;;;;6340043;28;20148;-65
2023/11/03 09:33:00;;;;;;;23.70;15.93;;;;;;;;;;6339853;27;20411;-65
2023/11/03 09:36:03;;;;;;;16.33;10.18;;;;;;;;;;6341472;27;20058;-65
2023/11/03 09:39:05;;;;;;;16.92;10.50;;;;;;;;;;6339817;28;20545;-65
2023/11/03 09:42:08;;;;;;;17.20;11.38;;;;;;;;;;6340942;27;20054;-65
2023/11/03 09:45:15;;;;;;;17.60;9.98;;;;;;;;;;6337496;28;20051;-66
2023/11/03 09:48:19;;;;;;;17.85;9.68;;;;;;;;;;6341204;27;20058;-65
2023/11/03 09:51:23;;;;;;;20.88;11.45;;;;;;;;;;6331666;27;20055;-65
2023/11/03 09:54:25;;;;;;;17.80;10.15;;;;;;;;;;6338833;28;20510;-65
2023/11/03 09:57:27;;;;;;;19.80;10.98;;;;;;;;;;6336976;28;20051;-66
2023/11/03 10:00:29;;;;;;;13.63;9.52;;;;;;;;;;6337682;28;20050;-66
2023/11/03 10:03:31;;;;;;;17.52;10.75;;;;;;;;;;6340832;27;20050;-66
2023/11/03 10:06:37;;;;;;;15.85;9.20;;;;;;;;;;6342541;27;20775;-65
2023/11/03 10:09:40;;;;;;;16.35;10.07;;;;;;;;;;6340299;27;20047;-65
2023/11/03 10:12:42;;;;;;;15.73;9.40;;;;;;;;;;6340539;27;20078;-65
2023/11/03 10:15:45;;;;;;;18.13;10.85;;;;;;;;;;6337196;28;20031;-66
2023/11/03 10:18:47;;;;;;;17.25;8.88;;;;;;;;;;6340818;27;20655;-65
2023/11/03 10:21:49;;;;;;;18.23;9.60;;;;;;;;;;6340798;27;20051;-65
2023/11/03 10:24:51;;;;;;;17.95;10.02;;;;;;;;;;6338516;27;20071;-65
2023/11/03 10:27:54;;;;;;;16.83;9.13;;;;;;;;;;6342746;27;20040;-65
2023/11/03 10:30:57;;;;;;;13.80;9.18;;;;;;;;;;6338526;28;20112;-65
2023/11/03 10:33:59;;;;;;;16.70;9.48;;;;;;;;;;6345312;27;20145;-65
2023/11/03 10:37:02;;;;;;;15.73;8.63;;;;;;;;;;6343143;27;20061;-65
2023/11/03 10:40:05;;;;;;;13.98;8.30;;;;;;;;;;6337990;28;20127;-66
2023/11/03 10:43:09;;;;;;;;;;;;;;;;;;6340549;27;20548;-65
2023/11/03 10:46:21;;;;;;;16.92;9.45;;;;;;;;;;6338822;27;20469;-65
2023/11/03 10:49:32;;;;;;;16.50;9.75;;;;;;;;;;6338974;27;20048;-65
2023/11/03 10:53:02;;;;;;;16.85;9.02;;;;;;;;;;6343437;27;20043;-65
2023/11/03 10:56:05;;;;;;;15.27;9.45;;;;;;;;;;6295514;28;20122;-65
2023/11/03 10:59:11;;;;;;;17.90;10.52;;;;;;;;;;6334785;28;20080;-65
2023/11/03 11:02:29;;;;;;;21.05;11.18;;;;;;;;;;6343575;27;20043;-65
2023/11/03 11:05:40;;;;;;;16.15;8.65;;;;;;;;;;6336470;27;20051;-65
2023/11/03 11:08:45;;;;;;;19.90;11.60;;;;;;;;;;6331381;28;20066;-65
2023/11/03 11:11:48;;;;;;;15.95;10.38;;;;;;;;;;6341079;27;20091;-65
2023/11/03 11:14:53;;;;;;;17.10;10.55;;;;;;;;;;6330847;28;20048;-65
2023/11/03 11:18:03;;;;;;;16.60;9.32;;;;;;;;;;6340697;27;20047;-64
2023/11/03 11:21:07;;;;;;;16.92;10.27;;;;;;;;;;6334063;28;20129;-65
2023/11/03 11:24:12;;;;;;;16.90;12.50;;;;;;;;;;6342770;27;20403;-67
2023/11/03 11:27:22;;;;;;;19.75;13.23;;;;;;;;;;6341770;27;20421;-64
2023/11/03 11:30:32;;;;;;;18.92;10.27;;;;;;;;;;6332662;28;20050;-64
2023/11/03 11:34:03;;;;;;;18.08;10.23;;;;;;;;;;6356696;27;20044;-65
2023/11/03 11:37:21;;;;;;;14.77;9.48;;;;;;;;;;6341000;27;20556;-65
2023/11/03 11:40:25;;;;;;;15.82;10.45;;;;;;;;;;6336547;28;20070;-65
2023/11/03 11:43:33;;;;;;;14.80;9.38;;;;;;;;;;6339207;27;20056;-65
2023/11/03 11:46:54;;;;;;;18.30;9.18;;;;;;;;;;6340095;27;20175;-65
2023/11/03 11:49:57;;;;;;;13.48;9.35;;;;;;;;;;6342787;27;20054;-65
2023/11/03 11:52:59;;;;;;;17.05;10.20;;;;;;;;;;6335584;28;20078;-65
2023/11/03 11:56:05;;;;;;;15.68;9.05;;;;;;;;;;6336441;28;20044;-65
2023/11/03 11:59:09;;;;;;;16.05;9.02;;;;;;;;;;6339577;27;20047;-65
2023/11/03 12:02:11;;;;;;;12.45;8.70;;;;;;;;;;6356032;27;20184;-65
2023/11/03 12:05:16;;;;;;;14.23;8.57;;;;;;;;;;6340808;27;20055;-64
2023/11/03 12:08:18;;;;;;;12.57;8.77;;;;;;;;;;6341339;27;20105;-64
2023/11/03 12:11:20;;;;;;;15.90;7.60;;;;;;;;;;6345843;27;20047;-65
2023/11/03 12:14:24;;;;;;;14.38;8.93;;;;;;;;;;6347548;27;20035;-65
2023/11/03 12:17:26;;;;;;;16.88;8.45;;;;;;;;;;6345221;28;20078;-65
2023/11/03 12:20:28;;;;;;;13.68;8.77;;;;;;;;;;6334454;28;20054;-64
2023/11/03 12:23:31;;;;;;;14.73;8.80;;;;;;;;;;6340018;28;20048;-65
2023/11/03 12:26:34;;;;;;;16.60;8.82;;;;;;;;;;6342938;27;20071;-64
2023/11/03 12:29:44;;;;;;;;;;;;;;;;;;6341602;28;20043;-65
2023/11/03 12:32:46;;;;;;;12.80;9.30;;;;;;;;;;6340054;28;19920;-65
2023/11/03 12:35:48;;;;;;;12.48;7.20;;;;;;;;;;6333592;28;20043;-65
2023/11/03 12:38:52;;;;;;;;;;;;;;;;;;6338663;27;20051;-65
2023/11/03 12:42:09;;;;;;;13.93;7.28;;;;;;;;;;6348817;28;19924;-65
2023/11/03 12:45:18;;;;;;;9.93;6.25;;;;;;;;;;6333529;27;20039;-65
2023/11/03 12:48:27;;;;;;;9.85;6.50;;;;;;;;;;6348228;27;20081;-65
2023/11/03 12:51:30;;;;;;;12.18;7.10;;;;;;;;;;6340949;27;20051;-65
2023/11/03 12:54:33;;;;;;;13.10;9.15;;;;;;;;;;6349264;27;20650;-65
2023/11/03 12:57:35;;;;;;;11.63;6.13;;;;;;;;;;6348982;27;20031;-65
2023/11/03 13:00:40;;;;;;;14.32;7.40;;;;;;;;;;6348317;27;20039;-65
2023/11/03 13:03:42;;;;;;;12.07;7.13;;;;;;;;;;6346974;27;20043;-65
2023/11/03 13:06:47;;;;;;;9.60;6.10;;;;;;;;;;6346981;27;20044;-65
2023/11/03 13:09:50;;;;;;;10.48;6.70;;;;;;;;;;6338151;28;20128;-66
2023/11/03 13:12:52;;;;;;;12.70;7.40;;;;;;;;;;6339698;28;20086;-65
2023/11/03 13:15:57;;;;;;;16.73;9.45;;;;;;;;;;6339720;28;20070;-65
2023/11/03 13:18:59;;;;;;;13.13;8.80;;;;;;;;;;6337974;28;20612;-65
2023/11/03 13:22:05;;;;;;;11.52;7.47;;;;;;;;;;6338197;28;20074;-65
2023/11/03 13:25:07;;;;;;;15.05;9.45;;;;;;;;;;6344957;27;20043;-63
2023/11/03 13:28:09;;;;;;;15.75;8.48;;;;;;;;;;6347559;27;20035;-66
2023/11/03 13:31:14;;;;;;;14.38;9.05;;;;;;;;;;6342198;27;20097;-65
2023/11/03 13:34:16;;;;;;;17.42;9.02;;;;;;;;;;6348121;27;20047;-65
2023/11/03 13:37:19;;;;;;;12.55;7.75;;;;;;;;;;6325698;27;20135;-65
2023/11/03 13:40:24;;;;;;;19.13;11.70;;;;;;;;;;6344544;27;20137;-65
2023/11/03 13:43:30;;;;;;;16.77;8.27;;;;;;;;;;6348131;27;20126;-65
2023/11/03 13:46:35;;;;;;;15.88;8.15;;;;;;;;;;6348911;27;20040;-65
2023/11/03 13:49:38;;;;;;;15.55;8.93;;;;;;;;;;6336410;27;20058;-65
2023/11/03 13:52:43;;;;;;;15.05;8.55;;;;;;;;;;6338046;27;20051;-65
2023/11/03 13:55:48;;;;;;;15.32;8.10;;;;;;;;;;6346358;27;20581;-65
2023/11/03 13:58:50;;;;;;;14.18;8.45;;;;;;;;;;6344633;27;20095;-65
2023/11/03 14:01:53;;;;;;;14.50;9.02;;;;;;;;;;6339141;27;20044;-64
2023/11/03 14:04:55;;;;;;;14.32;7.97;;;;;;;;;;6329538;27;20128;-65
2023/11/03 14:07:58;;;;;;;17.23;9.15;;;;;;;;;;6343062;27;20147;-65
2023/11/03 14:11:05;;;;;;;13.88;8.57;;;;;;;;;;6340263;27;20700;-64
2023/11/03 14:14:07;;;;;;;15.10;8.80;;;;;;;;;;6345117;27;20047;-65
2023/11/03 14:17:09;;;;;;;13.13;10.50;;;;;;;;;;6343942;27;20174;-65
2023/11/03 14:20:12;;;;;;;12.93;7.63;;;;;;;;;;6352547;27;20138;-65
2023/11/03 14:23:20;;;;;;;14.55;8.30;;;;;;;;;;6349786;27;20054;-65
2023/11/03 14:26:24;;;;;;;28.08;16.88;;;;;;;;;;6345312;27;20149;-65
2023/11/03 14:29:28;;;;;;;17.52;9.95;;;;;;;;;;6341543;27;20077;-65
2023/11/03 14:32:30;;;;;;;15.05;9.57;;;;;;;;;;6337974;27;20181;-65
2023/11/03 14:35:32;;;;;;;19.02;11.50;;;;;;;;;;6342476;27;20445;-65
2023/11/03 14:38:35;;;;;;;11.27;8.32;;;;;;;;;;6333319;27;20048;-65
2023/11/03 14:41:39;;;;;;;14.02;9.13;;;;;;;;;;6344686;27;20063;-65
2023/11/03 14:44:46;;;;;;;16.35;10.02;;;;;;;;;;6334291;27;20043;-65
2023/11/03 14:47:49;;;;;;;18.40;8.50;;;;;;;;;;6337738;27;20047;-65
2023/11/03 14:50:51;;;;;;;17.25;9.55;;;;;;;;;;6337259;27;20177;-65
2023/11/03 14:53:56;;;;;;;20.77;9.63;;;;;;;;;;6333333;27;20047;-65
2023/11/03 14:57:18;;;;;;;17.88;9.30;;;;;;;;;;6332674;27;20055;-65
2023/11/03 15:00:26;;;;;;;17.67;10.02;;;;;;;;;;6335026;28;20047;-65
2023/11/03 15:03:34;;;;;;;18.55;9.15;;;;;;;;;;6337887;27;20106;-65
2023/11/03 15:06:36;;;;;;;16.17;10.90;;;;;;;;;;6344399;27;20120;-65
2023/11/03 15:09:38;;;;;;;13.82;9.15;;;;;;;;;;6351840;27;20047;-65
2023/11/03 15:12:43;;;;;;;21.70;10.93;;;;;;;;;;6350261;27;20070;-65
2023/11/03 15:15:46;;;;;;;12.68;8.77;;;;;;;;;;6347670;27;20054;-64
2023/11/03 15:18:51;;;;;;;16.02;9.50;;;;;;;;;;6347028;27;20090;-64
2023/11/03 15:21:54;;;;;;;17.27;8.93;;;;;;;;;;6336188;28;20157;-65
2023/11/03 15:24:56;;;;;;;15.63;9.48;;;;;;;;;;6349498;27;20047;-65
2023/11/03 15:27:58;;;;;;;16.35;8.90;;;;;;;;;;6338501;27;20044;-65
2023/11/03 15:31:08;;;;;;;20.05;10.45;;;;;;;;;;6344960;27;20053;-64
2023/11/03 15:34:11;;;;;;;16.88;9.55;;;;;;;;;;6334522;27;20727;-64
2023/11/03 15:37:13;;;;;;;20.08;10.52;;;;;;;;;;6336309;27;20055;-65
2023/11/03 15:40:17;;;;;;;30.77;16.38;;;;;;;;;;6341856;27;20581;-65
2023/11/03 15:43:19;;;;;;;22.85;13.35;;;;;;;;;;6336699;27;20056;-64
2023/11/03 15:46:31;;;;;;;22.90;12.43;;;;;;;;;;6365868;27;20100;-65
2023/11/03 15:49:33;;;;;;;26.65;16.92;;;;;;;;;;6343161;27;20547;-64
2023/11/03 15:52:35;;;;;;;20.98;11.25;;;;;;;;;;6335279;27;20051;-66
2023/11/03 15:55:46;;;;;;;26.10;14.63;;;;;;;;;;6343330;27;20040;-66
2023/11/03 15:58:52;;;;;;;17.60;9.52;;;;;;;;;;6342743;27;20539;-66
2023/11/03 16:01:54;;;;;;;21.23;12.52;;;;;;;;;;6326262;27;20079;-66
2023/11/03 16:04:56;;;;;;;16.77;9.13;;;;;;;;;;6341654;27;20644;-66
2023/11/03 16:07:58;;;;;;;16.20;9.90;;;;;;;;;;6336995;27;20144;-66
2023/11/03 16:11:04;;;;;;;15.90;8.88;;;;;;;;;;6337639;27;20722;-66
2023/11/03 16:14:08;;;;;;;19.95;10.38;;;;;;;;;;6357132;27;20055;-66
2023/11/03 16:17:12;;;;;;;19.77;10.75;;;;;;;;;;6353373;27;20042;-66
2023/11/03 16:20:16;;;;;;;17.35;9.10;;;;;;;;;;6341417;27;20524;-66
2023/11/03 16:23:18;;;;;;;19.90;13.55;;;;;;;;;;6336507;28;20686;-66
2023/11/03 16:26:23;;;;;;;;;;;;;;;;;;6345976;27;20056;-66
2023/11/03 16:29:25;;;;;;;15.30;10.70;;;;;;;;;;6351403;28;20431;-66
2023/11/03 16:32:27;;;;;;;16.15;8.98;;;;;;;;;;6330361;27;20154;-66
2023/11/03 16:35:31;;;;;;;14.73;8.15;;;;;;;;;;6337223;28;20446;-66
2023/11/03 16:38:33;;;;;;;15.35;9.18;;;;;;;;;;6351941;28;20092;-66
2023/11/03 16:41:35;;;;;;;13.40;8.73;;;;;;;;;;6342445;27;20043;-66
2023/11/03 16:44:38;;;;;;;18.42;11.60;;;;;;;;;;6343520;28;20075;-66
2023/11/03 16:47:40;;;;;;;18.08;10.55;;;;;;;;;;6336620;28;20066;-66
2023/11/03 16:50:43;;;;;;;18.58;10.45;;;;;;;;;;6327245;27;20043;-66
2023/11/03 16:53:45;;;;;;;19.77;11.68;;;;;;;;;;6335281;28;20774;-66
2023/11/03 16:56:47;;;;;;;51.05;34.60;;;;;;;;;;6341926;28;20047;-66
2023/11/03 16:59:49;;;;;;;25.10;14.48;;;;;;;;;;6346047;28;20445;-65
2023/11/03 17:02:52;;;;;;;20.33;10.30;;;;;;;;;;6340817;28;20051;-66
2023/11/03 17:05:54;;;;;;;14.50;9.00;;;;;;;;;;6337348;28;20155;-66
2023/11/03 17:08:56;;;;;;;16.95;8.90;;;;;;;;;;6338168;28;20040;-66
2023/11/03 17:11:59;;;;;;;17.98;11.38;;;;;;;;;;6356138;27;20438;-66
2023/11/03 17:15:01;;;;;;;19.45;10.20;;;;;;;;;;6344452;28;20047;-65
2023/11/03 17:18:04;;;;;;;14.40;10.00;;;;;;;;;;6336321;28;20461;-66
2023/11/03 17:21:08;;;;;;;14.75;9.25;;;;;;;;;;6339903;28;20047;-65
2023/11/03 17:24:11;;;;;;;20.40;9.70;;;;;;;;;;6339865;28;20031;-65
2023/11/03 17:27:13;;;;;;;18.83;9.85;;;;;;;;;;6332573;28;20040;-65
2023/11/03 17:30:16;;;;;;;17.45;9.45;;;;;;;;;;6339842;28;20047;-66
2023/11/03 17:33:18;;;;;;;23.50;11.60;;;;;;;;;;6340211;27;20581;-66
2023/11/03 17:36:20;;;;;;;17.02;8.25;;;;;;;;;;6347167;27;20039;-66
2023/11/03 17:39:27;;;;;;;15.25;7.90;;;;;;;;;;6343295;27;20745;-66
2023/11/03 17:42:30;;;;;;;16.52;9.88;;;;;;;;;;6341289;27;20138;-66
2023/11/03 17:45:32;;;;;;;20.33;9.30;;;;;;;;;;6342651;27;20046;-65
2023/11/03 17:48:34;;;;;;;16.42;8.00;;;;;;;;;;6342581;27;20771;-65
2023/11/03 17:51:39;;;;;;;16.25;9.32;;;;;;;;;;6343936;27;20842;-65
2023/11/03 17:54:41;;;;;;;22.88;10.68;;;;;;;;;;6347954;27;20047;-65